Impacts METAR Board
IDs:

KIAD - Washington/Dulles In, VA, US

Updated at: 0700 UTC 11 Dec 2018
Potential Impact None Slight Moderate High
Time 10/19Z 10/20Z 10/21Z 10/22Z 10/23Z 11/00Z 11/01Z 11/02Z 11/03Z 11/04Z 11/05Z 11/06Z 11/07Z
Temp38 38 37 35 34 34 31 29 26 25 25 22 22
Dewpt23 22 22 22 22 22 23 22 22 21 20 20 19
Altim30.13 30.12 30.13 30.14 30.16 30.17 30.19 30.20 30.20 30.20 30.20 30.19 30.19
VIS10 10 10 10 10 10 10 10 10 10 10 10 10
CIG250 250 250 250 250 -- 250 -- -- -- -- -- --
CoverBKNBKNBKNBKNBKNCLRBKNFEWCLRFEWFEWFEWCLR
FltCatVFRVFRVFRVFRVFRVFRVFRVFRVFRVFRVFRVFRVFR
WX--------------------------
WDir35035034034033010200310300000
WSpd9 10 8 6 6 6 6 4 3 4 0 0 0
WGst-- -- -- -- -- -- -- -- -- -- -- -- --
Raw hourly METARs
KIAD 101852Z 35009KT 10SM SCT170 BKN250 03/M05 A3013 RMK AO2 SLP206 T00331050
KIAD 101952Z 35010KT 10SM FEW180 BKN250 03/M06 A3012 RMK AO2 SLP203 T00331056
KIAD 102052Z 34008KT 10SM FEW065 SCT120 BKN250 03/M06 A3013 RMK AO2 SLP207 T00281056 55003
KIAD 102152Z 34006KT 10SM SCT140 BKN250 02/M06 A3014 RMK AO2 SLP209 T00171056
KIAD 102252Z 33006KT 10SM BKN250 01/M06 A3016 RMK AO2 SLP216 T00111056
KIAD 102352Z 01006KT 10SM CLR 01/M06 A3017 RMK AO2 SLP219 T00111056 10039 20000 53013
KIAD 110052Z 02006KT 10SM BKN250 M01/M05 A3019 RMK AO2 SLP227 T10061050
KIAD 110152Z VRB04KT 10SM FEW110 M02/M06 A3020 RMK AO2 SLP230 T10171056
KIAD 110252Z 31003KT 10SM CLR M03/M06 A3020 RMK AO2 SLP229 T10331056 50010
KIAD 110352Z 30004KT 10SM FEW160 M04/M06 A3020 RMK AO2 SLP230 T10391061
KIAD 110452Z 00000KT 10SM FEW250 M04/M07 A3020 RMK AO2 SLP230 T10391067 400391044
KIAD 110552Z 00000KT 10SM FEW250 M06/M07 A3019 RMK AO2 SLP226 T10561067 10011 21056 58003
KIAD 110652Z 00000KT 10SM CLR M06/M07 A3019 RMK AO2 SLP226 T10561072



Page loaded:  07:11 UTC  |   11:11 PM Pacific  |   12:11 AM Mountain  |   01:11 AM Central  |   02:11 AM Eastern

 

ADVISORIES

FORECASTS

FORECASTS

OBSERVATIONS

USER TOOLS

ABOUT US